createdAt,value
2022-11-20T00:01:21.369Z,11.68
2022-11-20T00:03:56.000Z,12.10
2022-11-20T00:06:30.681Z,11.93
2022-11-20T00:09:04.274Z,11.60
2022-11-20T00:11:38.188Z,12.02
2022-11-20T00:14:12.377Z,13.48
2022-11-20T00:16:47.478Z,11.85
2022-11-20T00:19:20.885Z,11.93
2022-11-20T00:21:56.364Z,11.38
2022-11-20T00:24:29.603Z,12.15
2022-11-20T00:27:03.222Z,10.90
2022-11-20T00:29:36.474Z,11.88
2022-11-20T00:32:11.270Z,13.52
2022-11-20T00:34:44.532Z,13.73
2022-11-20T00:37:17.848Z,12.82
2022-11-20T00:39:51.132Z,11.95
2022-11-20T00:42:24.359Z,12.82
2022-11-20T00:44:57.794Z,14.35
2022-11-20T00:47:32.441Z,12.13
2022-11-20T00:50:06.765Z,12.57
2022-11-20T00:52:40.182Z,13.10
2022-11-20T00:55:13.432Z,13.18
2022-11-20T00:57:47.138Z,12.40
2022-11-20T01:00:20.683Z,12.23
2022-11-20T01:02:57.706Z,11.93
2022-11-20T01:05:30.946Z,13.57
2022-11-20T01:08:04.549Z,14.00
2022-11-20T01:10:38.151Z,13.57
2022-11-20T01:13:29.065Z,18.55
2022-11-20T01:16:05.228Z,16.90
2022-11-20T01:18:42.344Z,19.85
2022-11-20T01:21:18.296Z,14.93
2022-11-20T01:23:52.545Z,20.02
2022-11-20T01:26:27.142Z,17.60
2022-11-20T01:29:01.001Z,16.02
2022-11-20T01:31:36.207Z,18.45
2022-11-20T01:34:14.186Z,17.02
2022-11-20T01:36:48.010Z,20.95
2022-11-20T01:39:24.088Z,18.67
2022-11-20T01:42:15.621Z,15.57
2022-11-20T01:44:55.325Z,13.90
2022-11-20T01:47:35.142Z,16.95
2022-11-20T01:50:19.048Z,22.30
2022-11-20T01:52:56.999Z,17.73
2022-11-20T01:55:35.102Z,18.15
2022-11-20T01:58:08.670Z,17.52
2022-11-20T02:00:42.987Z,18.88
2022-11-20T02:03:19.463Z,19.25
2022-11-20T02:06:00.091Z,17.90
2022-11-20T02:08:34.456Z,15.85
2022-11-20T02:11:07.830Z,16.58
2022-11-20T02:13:46.337Z,15.90
2022-11-20T02:16:25.929Z,16.13
2022-11-20T02:19:03.415Z,14.68
2022-11-20T02:21:44.860Z,16.27
2022-11-20T02:24:21.734Z,14.18
2022-11-20T02:26:57.935Z,16.17
2022-11-20T02:29:36.214Z,13.10
2022-11-20T02:32:20.653Z,14.20
2022-11-20T02:34:54.524Z,12.93
2022-11-20T02:37:34.615Z,14.27
2022-11-20T02:40:11.094Z,12.95
2022-11-20T02:42:44.358Z,14.07
2022-11-20T02:45:18.148Z,14.85
2022-11-20T02:47:51.590Z,12.45
2022-11-20T02:50:24.814Z,16.30
2022-11-20T02:52:58.432Z,13.63
2022-11-20T02:55:33.208Z,14.70
2022-11-20T02:58:06.895Z,21.23
2022-11-20T03:00:40.142Z,18.27
2022-11-20T03:03:13.897Z,19.70
2022-11-20T03:05:47.336Z,17.95
2022-11-20T03:08:20.630Z,18.52
2022-11-20T03:10:55.274Z,18.27
2022-11-20T03:13:28.515Z,20.52
2022-11-20T03:16:11.840Z,19.65
2022-11-20T03:18:45.565Z,17.50
2022-11-20T03:21:19.051Z,17.50
2022-11-20T03:23:52.285Z,18.63
2022-11-20T03:26:28.769Z,15.93
2022-11-20T03:29:04.200Z,18.25
2022-11-20T03:31:41.467Z,15.68
2022-11-20T03:34:14.765Z,16.08
2022-11-20T03:36:48.007Z,15.48
2022-11-20T03:39:21.940Z,12.65
2022-11-20T03:41:56.770Z,13.40
2022-11-20T03:44:30.214Z,14.15
2022-11-20T03:47:03.456Z,16.20
2022-11-20T03:49:36.786Z,13.77
2022-11-20T03:52:10.183Z,13.10
2022-11-20T03:54:43.926Z,12.02
2022-11-20T03:57:18.566Z,14.40
2022-11-20T03:59:51.829Z,15.43
2022-11-20T04:02:25.262Z,13.70
2022-11-20T04:04:58.525Z,13.25
2022-11-20T04:07:32.669Z,16.35
2022-11-20T04:10:06.912Z,13.30
2022-11-20T04:12:41.703Z,15.30
2022-11-20T04:15:14.987Z,15.95
2022-11-20T04:17:48.527Z,15.45
2022-11-20T04:20:21.982Z,15.48
2022-11-20T04:22:56.742Z,15.15
2022-11-20T04:25:30.142Z,13.38
2022-11-20T04:28:04.956Z,13.63
2022-11-20T04:30:38.721Z,14.27
2022-11-20T04:33:12.086Z,15.52
2022-11-20T04:35:48.452Z,13.52
2022-11-20T04:38:21.737Z,14.02
2022-11-20T04:40:59.119Z,14.82
2022-11-20T04:43:34.474Z,17.02
2022-11-20T04:46:08.063Z,16.02
2022-11-20T04:48:41.355Z,13.95
2022-11-20T04:51:15.275Z,15.38
2022-11-20T04:53:48.674Z,13.18
2022-11-20T04:56:22.228Z,14.73
2022-11-20T04:58:57.047Z,14.98
2022-11-20T05:01:30.674Z,16.15
2022-11-20T05:04:04.136Z,16.63
2022-11-20T05:06:37.410Z,15.15
2022-11-20T05:09:11.083Z,15.95
2022-11-20T05:11:47.046Z,14.45
2022-11-20T05:14:23.816Z,14.35
2022-11-20T05:16:57.148Z,17.67
2022-11-20T05:19:30.600Z,16.65
2022-11-20T05:22:03.888Z,16.35
2022-11-20T05:24:37.517Z,16.38
2022-11-20T05:27:10.771Z,15.38
2022-11-20T05:29:45.598Z,15.88
2022-11-20T05:32:18.852Z,17.27
2022-11-20T05:34:52.084Z,17.77
2022-11-20T05:37:25.333Z,17.83
2022-11-20T05:39:58.798Z,17.42
2022-11-20T05:42:32.821Z,15.50
2022-11-20T05:45:08.838Z,16.13
2022-11-20T05:47:42.082Z,16.90
2022-11-20T05:50:15.741Z,13.80
2022-11-20T05:52:49.331Z,15.68
2022-11-20T05:55:22.844Z,13.85
2022-11-20T05:57:56.312Z,14.13
2022-11-20T06:00:30.959Z,14.77
2022-11-20T06:03:04.443Z,13.25
2022-11-20T06:05:38.080Z,15.80
2022-11-20T06:08:11.369Z,13.55
2022-11-20T06:10:44.944Z,12.05
2022-11-20T06:13:18.190Z,12.45
2022-11-20T06:15:54.214Z,13.48
2022-11-20T06:18:29.595Z,12.45
2022-11-20T06:21:04.609Z,14.55
2022-11-20T06:23:38.472Z,17.25
2022-11-20T06:26:14.389Z,15.82
2022-11-20T06:28:48.176Z,14.43
2022-11-20T06:31:24.315Z,17.20
2022-11-20T06:33:57.810Z,19.15
2022-11-20T06:36:31.110Z,18.13
2022-11-20T06:39:05.127Z,17.08
2022-11-20T06:41:38.371Z,17.77
2022-11-20T06:44:11.734Z,17.00
2022-11-20T06:46:46.395Z,18.23
2022-11-20T06:49:20.596Z,15.55
2022-11-20T06:51:54.184Z,19.83
2022-11-20T06:54:27.474Z,19.40
2022-11-20T06:57:00.826Z,19.92
2022-11-20T06:59:34.381Z,22.00
2022-11-20T07:02:12.068Z,19.15
2022-11-20T07:04:45.384Z,18.67
2022-11-20T07:07:19.059Z,18.10
2022-11-20T07:09:52.384Z,18.05
2022-11-20T07:12:25.657Z,17.73
2022-11-20T07:14:58.907Z,17.42
2022-11-20T07:17:33.552Z,20.10
2022-11-20T07:20:07.669Z,17.85
2022-11-20T07:22:41.282Z,18.83
2022-11-20T07:25:14.564Z,17.63
2022-11-20T07:27:47.828Z,19.42
2022-11-20T07:30:21.799Z,20.63
2022-11-20T07:32:57.968Z,21.08
2022-11-20T07:35:31.250Z,19.33
2022-11-20T07:38:04.530Z,18.05
2022-11-20T07:40:37.974Z,17.95
2022-11-20T07:43:11.239Z,18.38
2022-11-20T07:45:44.807Z,20.40
2022-11-20T07:48:19.428Z,18.15
2022-11-20T07:50:56.123Z,20.95
2022-11-20T07:53:29.388Z,21.50
2022-11-20T07:56:03.822Z,19.60
2022-11-20T07:58:37.672Z,17.65
2022-11-20T08:01:11.033Z,17.50
2022-11-20T08:03:46.054Z,16.75
2022-11-20T08:06:20.563Z,16.42
2022-11-20T08:08:54.107Z,15.82
2022-11-20T08:11:44.466Z,15.10
2022-11-20T08:14:18.206Z,15.38
2022-11-20T08:16:51.780Z,13.15
2022-11-20T08:19:26.584Z,16.17
2022-11-20T08:22:00.030Z,15.90
2022-11-20T08:24:33.269Z,13.63
2022-11-20T08:27:07.026Z,13.13
2022-11-20T08:29:40.458Z,12.95
2022-11-20T08:32:13.801Z,16.05
2022-11-20T08:34:48.792Z,17.27
2022-11-20T08:37:22.045Z,17.15
2022-11-20T08:39:58.246Z,17.13
2022-11-20T08:42:31.496Z,12.43
2022-11-20T08:45:05.745Z,9.13
2022-11-20T08:47:39.259Z,9.60
2022-11-20T08:50:14.954Z,10.57
2022-11-20T08:52:48.693Z,10.35
2022-11-20T08:55:21.953Z,12.55
2022-11-20T08:57:55.379Z,11.30
2022-11-20T09:00:28.661Z,12.60
2022-11-20T09:03:02.813Z,12.82
2022-11-20T09:05:37.660Z,15.13
2022-11-20T09:08:11.041Z,12.75
2022-11-20T09:10:44.446Z,13.05
2022-11-20T09:13:17.700Z,14.48
2022-11-20T09:15:55.422Z,13.88
2022-11-20T09:18:32.584Z,15.05
2022-11-20T09:21:08.909Z,14.98
2022-11-20T09:23:42.504Z,16.15
2022-11-20T09:26:16.412Z,10.95
2022-11-20T09:28:52.836Z,13.00
2022-11-20T09:31:28.612Z,9.15
2022-11-20T09:34:01.925Z,10.25
2022-11-20T09:36:36.588Z,9.32
2022-11-20T09:39:09.929Z,12.23
2022-11-20T09:42:12.001Z,8.40
2022-11-20T09:45:00.129Z,7.75
2022-11-20T09:47:44.588Z,8.77
2022-11-20T09:50:28.822Z,9.43
2022-11-20T09:53:17.276Z,10.77
2022-11-20T09:55:51.585Z,7.82
2022-11-20T09:58:33.160Z,7.95
2022-11-20T10:01:13.519Z,8.65
2022-11-20T10:03:56.482Z,9.68
2022-11-20T10:06:33.372Z,7.93
2022-11-20T10:09:21.196Z,9.93
2022-11-20T10:12:01.057Z,10.98
2022-11-20T10:14:44.026Z,9.02
2022-11-20T10:17:27.439Z,10.35
2022-11-20T10:20:21.520Z,10.10
2022-11-20T10:23:15.026Z,7.78
2022-11-20T10:25:56.844Z,7.05
2022-11-20T10:28:55.438Z,7.53
2022-11-20T10:31:35.033Z,8.55
2022-11-20T10:34:22.658Z,7.03
2022-11-20T10:37:00.511Z,8.40
2022-11-20T10:39:37.635Z,8.40
2022-11-20T10:42:18.134Z,8.30
2022-11-20T10:45:05.998Z,7.50
2022-11-20T10:47:42.152Z,8.07
2022-11-20T10:50:22.490Z,8.07
2022-11-20T10:53:06.603Z,7.95
2022-11-20T10:55:47.067Z,8.40
2022-11-20T10:58:32.684Z,8.02
2022-11-20T11:01:06.974Z,9.20
2022-11-20T11:03:40.433Z,9.23
2022-11-20T11:06:20.562Z,8.63
2022-11-20T11:08:57.398Z,7.72
2022-11-20T11:11:33.001Z,9.27
2022-11-20T11:14:13.215Z,8.98
2022-11-20T11:16:52.919Z,9.30
2022-11-20T11:19:26.440Z,8.80
2022-11-20T11:22:00.035Z,8.88
2022-11-20T11:24:42.817Z,8.63
2022-11-20T11:27:19.007Z,8.98
2022-11-20T11:30:06.059Z,9.18
2022-11-20T11:32:39.366Z,7.57
2022-11-20T11:35:24.839Z,7.25
2022-11-20T11:38:06.478Z,8.18
2022-11-20T11:40:41.825Z,6.97
2022-11-20T11:43:39.789Z,8.27
2022-11-20T11:46:29.355Z,7.80
2022-11-20T11:49:12.442Z,7.43
2022-11-20T11:51:58.803Z,7.90
2022-11-20T11:54:37.017Z,6.47
2022-11-20T11:57:25.536Z,7.35
2022-11-20T12:00:05.532Z,7.63
2022-11-20T12:02:51.063Z,7.72
2022-11-20T12:05:27.688Z,7.97
2022-11-20T12:08:12.203Z,6.97
2022-11-20T12:10:50.709Z,8.30
2022-11-20T12:13:36.496Z,7.70
2022-11-20T12:16:14.704Z,7.38
2022-11-20T12:18:51.547Z,7.20
2022-11-20T12:21:33.551Z,7.50
2022-11-20T12:24:21.945Z,8.02
2022-11-20T12:27:06.288Z,7.22
2022-11-20T12:29:52.390Z,7.82
2022-11-20T12:32:55.431Z,9.20
2022-11-20T12:35:46.896Z,7.90
2022-11-20T12:38:55.891Z,7.07
2022-11-20T12:42:02.943Z,6.75
2022-11-20T12:45:11.303Z,7.32
2022-11-20T12:47:58.221Z,7.10
2022-11-20T12:51:08.210Z,6.88
2022-11-20T12:53:46.677Z,7.40
2022-11-20T12:56:32.204Z,6.95
2022-11-20T12:59:18.719Z,6.93
2022-11-20T13:01:55.314Z,7.20
2022-11-20T13:05:01.680Z,7.60
2022-11-20T13:07:38.334Z,6.45
2022-11-20T13:10:20.286Z,7.13
2022-11-20T13:12:59.714Z,6.45
2022-11-20T13:15:44.359Z,6.25
2022-11-20T13:18:18.435Z,10.15
2022-11-20T13:20:52.781Z,8.25
2022-11-20T13:23:29.156Z,6.30
2022-11-20T13:26:08.250Z,7.10
2022-11-20T13:28:42.511Z,6.50
2022-11-20T13:31:31.841Z,9.02
2022-11-20T13:34:08.117Z,9.95
2022-11-20T13:36:52.699Z,9.00
2022-11-20T13:39:32.798Z,10.27
2022-11-20T13:42:27.077Z,8.82
2022-11-20T13:45:10.356Z,10.88
2022-11-20T13:47:50.572Z,10.25
2022-11-20T13:50:41.528Z,9.15
2022-11-20T13:53:38.650Z,9.98
2022-11-20T13:56:25.566Z,10.02
2022-11-20T13:59:10.814Z,12.05
2022-11-20T14:01:48.608Z,12.05
2022-11-20T14:04:28.725Z,12.73
2022-11-20T14:07:02.695Z,10.98
2022-11-20T14:09:36.465Z,9.57
2022-11-20T14:12:19.733Z,8.10
2022-11-20T14:14:54.575Z,8.40
2022-11-20T14:17:33.913Z,9.25
2022-11-20T14:20:14.525Z,10.40
2022-11-20T14:22:51.744Z,9.77
2022-11-20T14:25:28.200Z,9.45
2022-11-20T14:28:04.717Z,10.00
2022-11-20T14:30:44.887Z,11.32
2022-11-20T14:33:18.769Z,12.07
2022-11-20T14:35:53.863Z,12.32
2022-11-20T14:38:29.872Z,13.77
2022-11-20T14:41:09.777Z,13.63
2022-11-20T14:43:48.793Z,13.98
2022-11-20T14:46:22.885Z,14.35
2022-11-20T14:48:58.282Z,12.55
2022-11-20T14:51:35.964Z,11.43
2022-11-20T14:54:14.042Z,13.55
2022-11-20T14:56:58.462Z,11.77
2022-11-20T14:59:34.678Z,15.10
2022-11-20T15:02:11.786Z,18.50
2022-11-20T15:04:50.511Z,19.38
2022-11-20T15:07:28.160Z,18.48
2022-11-20T15:10:02.956Z,21.27
2022-11-20T15:12:39.600Z,19.65
2022-11-20T15:15:17.218Z,33.05
2022-11-20T15:17:50.724Z,32.75
2022-11-20T15:20:28.746Z,22.63
2022-11-20T15:23:02.042Z,24.00
2022-11-20T15:25:35.614Z,21.92
2022-11-20T15:28:17.371Z,25.55
2022-11-20T15:30:52.462Z,23.77
2022-11-20T15:33:25.762Z,26.58
2022-11-20T15:35:59.244Z,19.70
2022-11-20T15:38:32.538Z,20.17
2022-11-20T15:41:06.314Z,24.05
2022-11-20T15:43:39.863Z,23.30
2022-11-20T15:46:17.636Z,22.02
2022-11-20T15:48:54.205Z,19.50
2022-11-20T15:51:29.478Z,19.20
2022-11-20T15:54:03.321Z,20.90
2022-11-20T15:56:36.561Z,18.52
2022-11-20T15:59:09.865Z,18.00
2022-11-20T16:01:44.902Z,14.82
2022-11-20T16:04:19.378Z,16.20
2022-11-20T16:06:52.679Z,14.93
2022-11-20T16:09:25.922Z,16.30
2022-11-20T16:12:00.411Z,12.10
2022-11-20T16:15:08.223Z,17.02
2022-11-20T16:17:47.076Z,17.65
2022-11-20T16:20:20.689Z,23.67
2022-11-20T16:22:55.037Z,26.33
2022-11-20T16:25:29.510Z,25.98
2022-11-20T16:28:02.996Z,26.80
2022-11-20T16:30:36.393Z,27.15
2022-11-20T16:33:14.086Z,26.20
2022-11-20T16:35:47.504Z,26.27
2022-11-20T16:38:20.742Z,27.52
2022-11-20T16:40:54.023Z,30.60
2022-11-20T16:43:27.269Z,30.88
2022-11-20T16:46:00.521Z,28.45
2022-11-20T16:48:35.182Z,26.90
2022-11-20T16:51:11.121Z,26.67
2022-11-20T16:53:44.515Z,36.50
2022-11-20T16:56:18.905Z,48.85
2022-11-20T16:58:53.056Z,50.03
2022-11-20T17:01:28.734Z,40.30
2022-11-20T17:04:05.502Z,41.17
2022-11-20T17:06:41.399Z,38.55
2022-11-20T17:09:15.395Z,51.03
2022-11-20T17:11:50.268Z,80.70
2022-11-20T17:14:23.721Z,57.03
2022-11-20T17:16:57.203Z,98.45
2022-11-20T17:19:31.913Z,75.80
2022-11-20T17:22:05.279Z,61.25
2022-11-20T17:24:38.665Z,57.58
2022-11-20T17:27:12.630Z,65.40
2022-11-20T17:29:46.738Z,60.38
2022-11-20T17:32:20.099Z,64.07
2022-11-20T17:34:54.787Z,58.75
2022-11-20T17:37:28.036Z,54.45
2022-11-20T17:40:01.297Z,58.05
2022-11-20T17:42:36.945Z,57.13
2022-11-20T17:45:10.491Z,53.47
2022-11-20T17:47:46.503Z,49.47
2022-11-20T17:50:21.200Z,50.38
2022-11-20T17:52:54.772Z,44.95
2022-11-20T17:55:51.475Z,31.23
2022-11-20T17:58:28.280Z,35.47
2022-11-20T18:01:06.882Z,36.33
2022-11-20T18:03:40.813Z,33.45
2022-11-20T18:06:18.132Z,41.20
2022-11-20T18:08:52.308Z,41.78
2022-11-20T18:11:27.253Z,66.57
2022-11-20T18:14:18.986Z,52.47
2022-11-20T18:16:55.682Z,43.83
2022-11-20T18:19:32.803Z,43.58
2022-11-20T18:22:07.978Z,49.88
2022-11-20T18:24:42.143Z,63.42
2022-11-20T18:27:18.387Z,91.10
2022-11-20T18:29:52.402Z,68.18
2022-11-20T18:32:25.871Z,65.47
2022-11-20T18:34:59.174Z,56.83
2022-11-20T18:37:34.278Z,54.42
2022-11-20T18:40:09.185Z,49.97
2022-11-20T18:43:00.043Z,46.38
2022-11-20T18:45:33.420Z,44.58
2022-11-20T18:48:06.908Z,48.13
2022-11-20T18:50:40.199Z,57.97
2022-11-20T18:53:14.903Z,58.00
2022-11-20T18:55:48.205Z,51.90
2022-11-20T18:58:21.512Z,56.50
2022-11-20T19:00:54.781Z,61.50
2022-11-20T19:03:28.752Z,52.70
2022-11-20T19:06:02.123Z,49.75
2022-11-20T19:08:36.913Z,44.90
2022-11-20T19:11:11.482Z,53.35
2022-11-20T19:13:44.778Z,53.33
2022-11-20T19:16:20.367Z,50.83
2022-11-20T19:18:56.414Z,63.95
2022-11-20T19:21:30.477Z,69.30
2022-11-20T19:24:06.090Z,60.08
2022-11-20T19:26:39.739Z,60.40
2022-11-20T19:29:15.508Z,54.67
2022-11-20T19:31:48.912Z,58.60
2022-11-20T19:34:22.355Z,53.20
2022-11-20T19:36:55.615Z,54.45
2022-11-20T19:39:30.460Z,53.33
2022-11-20T19:42:03.745Z,53.50
2022-11-20T19:44:37.059Z,68.22
2022-11-20T19:47:14.288Z,61.58
2022-11-20T19:49:48.049Z,54.35
2022-11-20T19:52:21.296Z,51.67
2022-11-20T19:54:56.273Z,57.92
2022-11-20T19:57:29.546Z,51.63
2022-11-20T20:00:02.786Z,54.88
2022-11-20T20:02:38.328Z,55.35
2022-11-20T20:05:11.628Z,58.60
2022-11-20T20:07:44.942Z,55.13
2022-11-20T20:10:20.412Z,52.67
2022-11-20T20:12:54.230Z,53.08
2022-11-20T20:15:27.660Z,51.53
2022-11-20T20:18:00.965Z,47.92
2022-11-20T20:20:34.246Z,44.78
2022-11-20T20:23:08.107Z,37.15
2022-11-20T20:25:42.744Z,37.60
2022-11-20T20:28:16.547Z,40.65
2022-11-20T20:30:49.985Z,49.00
2022-11-20T20:33:24.469Z,45.78
2022-11-20T20:36:00.599Z,38.80
2022-11-20T20:38:34.216Z,44.15
2022-11-20T20:41:09.081Z,48.95
2022-11-20T20:43:59.970Z,46.88
2022-11-20T20:46:33.475Z,48.90
2022-11-20T20:49:07.405Z,49.80
2022-11-20T20:51:40.665Z,45.67
2022-11-20T20:54:13.921Z,43.75
2022-11-20T20:56:48.539Z,40.83
2022-11-20T20:59:22.156Z,46.40
2022-11-20T21:01:55.616Z,47.33
2022-11-20T21:04:28.961Z,44.45
2022-11-20T21:07:02.262Z,49.85
2022-11-20T21:09:35.624Z,42.42
2022-11-20T21:12:10.294Z,34.05
2022-11-20T21:14:44.096Z,45.65
2022-11-20T21:17:17.370Z,45.78
2022-11-20T21:19:50.591Z,55.72
2022-11-20T21:22:22.879Z,40.15
2022-11-20T21:24:56.154Z,50.72
2022-11-20T21:27:30.877Z,67.45
2022-11-20T21:30:04.676Z,73.82
2022-11-20T21:32:38.036Z,69.97
2022-11-20T21:35:11.477Z,67.57
2022-11-20T21:37:44.795Z,55.78
2022-11-20T21:40:18.330Z,54.58
2022-11-20T21:42:54.630Z,59.10
2022-11-20T21:45:28.457Z,65.35
2022-11-20T21:48:01.760Z,58.97
2022-11-20T21:50:36.109Z,68.68
2022-11-20T21:53:09.383Z,67.80
2022-11-20T21:55:42.638Z,65.28
2022-11-20T21:58:17.349Z,66.03
2022-11-20T22:00:50.878Z,65.72
2022-11-20T22:03:24.579Z,61.67
2022-11-20T22:05:58.642Z,62.67
2022-11-20T22:08:32.106Z,62.45
2022-11-20T22:11:07.621Z,67.80
2022-11-20T22:14:00.222Z,59.40
2022-11-20T22:19:08.542Z,52.03
2022-11-20T22:21:41.942Z,54.67
2022-11-20T22:24:18.153Z,52.60
2022-11-20T22:26:51.727Z,52.83
2022-11-20T22:29:26.386Z,52.20
2022-11-20T22:31:59.641Z,45.78
2022-11-20T22:34:33.143Z,51.47
2022-11-20T22:37:06.461Z,55.03
2022-11-20T22:39:39.700Z,61.58
2022-11-20T22:42:12.940Z,60.22
2022-11-20T22:44:47.524Z,58.20
2022-11-20T22:47:20.952Z,58.17
2022-11-20T22:49:54.228Z,58.40
2022-11-20T22:52:27.609Z,57.58
2022-11-20T22:55:00.858Z,58.63
2022-11-20T22:57:34.143Z,50.15
2022-11-20T23:00:10.570Z,44.28
2022-11-20T23:02:45.247Z,41.65
2022-11-20T23:05:18.484Z,41.55
2022-11-20T23:07:51.757Z,43.45
2022-11-20T23:10:25.054Z,42.00
2022-11-20T23:12:58.355Z,40.50
2022-11-20T23:15:34.575Z,44.53
2022-11-20T23:18:07.895Z,44.75
2022-11-20T23:20:41.208Z,41.72
2022-11-20T23:23:14.487Z,40.15
2022-11-20T23:25:47.762Z,37.75
2022-11-20T23:28:21.024Z,36.92
2022-11-20T23:31:14.147Z,38.28
2022-11-20T23:33:48.041Z,37.58
2022-11-20T23:36:21.382Z,38.60
2022-11-20T23:38:54.643Z,35.40
2022-11-20T23:41:28.273Z,33.00
2022-11-20T23:44:01.508Z,33.20
2022-11-20T23:46:36.579Z,34.80
2022-11-20T23:49:10.088Z,36.30
2022-11-20T23:51:43.558Z,40.05
2022-11-20T23:54:16.973Z,38.17
2022-11-20T23:56:50.558Z,38.15
2022-11-20T23:59:23.816Z,39.13
